sensor_id;sensor_type;location;lat;lon;timestamp;P1;durP1;ratioP1;P2;durP2;ratioP2
40322;SDS011;26030;51.164;17.100;2023-02-01T00:03:24;4.60;;;1.90;;
40322;SDS011;26030;51.164;17.100;2023-02-01T00:08:28;4.50;;;1.70;;
40322;SDS011;26030;51.164;17.100;2023-02-01T00:13:35;3.60;;;1.60;;
40322;SDS011;26030;51.164;17.100;2023-02-01T00:18:42;5.90;;;2.00;;
40322;SDS011;26030;51.164;17.100;2023-02-01T00:23:47;3.50;;;1.30;;
40322;SDS011;26030;51.164;17.100;2023-02-01T00:28:51;4.80;;;1.50;;
40322;SDS011;26030;51.164;17.100;2023-02-01T00:33:55;3.30;;;1.70;;
40322;SDS011;26030;51.164;17.100;2023-02-01T00:38:59;4.70;;;1.50;;
40322;SDS011;26030;51.164;17.100;2023-02-01T00:44:04;3.60;;;1.70;;
40322;SDS011;26030;51.164;17.100;2023-02-01T00:49:08;2.00;;;1.50;;
40322;SDS011;26030;51.164;17.100;2023-02-01T00:54:12;2.00;;;1.10;;
40322;SDS011;26030;51.164;17.100;2023-02-01T00:59:16;1.50;;;1.00;;
40322;SDS011;26030;51.164;17.100;2023-02-01T01:04:21;2.20;;;1.10;;
40322;SDS011;26030;51.164;17.100;2023-02-01T01:09:25;3.20;;;1.40;;
40322;SDS011;26030;51.164;17.100;2023-02-01T01:14:30;1.90;;;1.00;;
40322;SDS011;26030;51.164;17.100;2023-02-01T01:19:34;1.60;;;1.10;;
40322;SDS011;26030;51.164;17.100;2023-02-01T01:24:39;1.40;;;1.20;;
40322;SDS011;26030;51.164;17.100;2023-02-01T01:29:43;2.20;;;1.20;;
40322;SDS011;26030;51.164;17.100;2023-02-01T01:34:47;1.50;;;1.00;;
40322;SDS011;26030;51.164;17.100;2023-02-01T01:39:51;2.20;;;1.00;;
40322;SDS011;26030;51.164;17.100;2023-02-01T01:45:24;1.60;;;1.40;;
40322;SDS011;26030;51.164;17.100;2023-02-01T01:50:32;1.40;;;0.80;;
40322;SDS011;26030;51.164;17.100;2023-02-01T01:55:41;1.90;;;1.00;;
40322;SDS011;26030;51.164;17.100;2023-02-01T02:00:47;1.70;;;0.90;;
40322;SDS011;26030;51.164;17.100;2023-02-01T02:05:53;1.30;;;0.90;;
40322;SDS011;26030;51.164;17.100;2023-02-01T02:10:59;2.20;;;1.20;;
40322;SDS011;26030;51.164;17.100;2023-02-01T02:16:13;1.90;;;1.30;;
40322;SDS011;26030;51.164;17.100;2023-02-01T02:21:56;1.80;;;0.90;;
40322;SDS011;26030;51.164;17.100;2023-02-01T02:32:58;2.40;;;0.80;;
40322;SDS011;26030;51.164;17.100;2023-02-01T02:38:18;1.40;;;1.10;;
40322;SDS011;26030;51.164;17.100;2023-02-01T02:43:41;1.30;;;0.90;;
40322;SDS011;26030;51.164;17.100;2023-02-01T02:49:12;1.60;;;1.00;;
40322;SDS011;26030;51.164;17.100;2023-02-01T02:54:23;2.40;;;0.90;;
40322;SDS011;26030;51.164;17.100;2023-02-01T02:59:47;2.40;;;1.20;;
40322;SDS011;26030;51.164;17.100;2023-02-01T03:05:10;2.40;;;1.00;;
40322;SDS011;26030;51.164;17.100;2023-02-01T03:15:51;1.40;;;0.90;;
40322;SDS011;26030;51.164;17.100;2023-02-01T03:20:59;1.10;;;0.70;;
40322;SDS011;26030;51.164;17.100;2023-02-01T03:26:07;1.60;;;1.40;;
40322;SDS011;26030;51.164;17.100;2023-02-01T03:31:13;1.70;;;0.80;;
40322;SDS011;26030;51.164;17.100;2023-02-01T03:41:37;1.10;;;0.60;;
40322;SDS011;26030;51.164;17.100;2023-02-01T03:47:18;1.10;;;1.00;;
40322;SDS011;26030;51.164;17.100;2023-02-01T03:52:28;1.10;;;1.00;;
40322;SDS011;26030;51.164;17.100;2023-02-01T03:57:38;1.10;;;0.90;;
40322;SDS011;26030;51.164;17.100;2023-02-01T04:02:43;1.10;;;0.90;;
40322;SDS011;26030;51.164;17.100;2023-02-01T04:07:47;1.70;;;1.00;;
40322;SDS011;26030;51.164;17.100;2023-02-01T04:12:51;1.50;;;1.00;;
40322;SDS011;26030;51.164;17.100;2023-02-01T04:17:56;1.00;;;0.80;;
40322;SDS011;26030;51.164;17.100;2023-02-01T04:23:00;3.20;;;1.00;;
40322;SDS011;26030;51.164;17.100;2023-02-01T04:28:06;1.30;;;0.80;;
40322;SDS011;26030;51.164;17.100;2023-02-01T04:33:10;2.30;;;0.90;;
40322;SDS011;26030;51.164;17.100;2023-02-01T04:38:17;1.80;;;1.00;;
40322;SDS011;26030;51.164;17.100;2023-02-01T04:43:22;1.80;;;0.90;;
40322;SDS011;26030;51.164;17.100;2023-02-01T04:48:26;0.90;;;0.80;;
40322;SDS011;26030;51.164;17.100;2023-02-01T04:53:31;1.20;;;1.00;;
40322;SDS011;26030;51.164;17.100;2023-02-01T04:58:36;1.10;;;0.80;;
40322;SDS011;26030;51.164;17.100;2023-02-01T05:03:40;1.50;;;0.90;;
40322;SDS011;26030;51.164;17.100;2023-02-01T05:08:44;1.70;;;0.90;;
40322;SDS011;26030;51.164;17.100;2023-02-01T05:13:48;1.60;;;0.90;;
40322;SDS011;26030;51.164;17.100;2023-02-01T05:18:53;1.70;;;0.80;;
40322;SDS011;26030;51.164;17.100;2023-02-01T05:23:57;2.50;;;1.10;;
40322;SDS011;26030;51.164;17.100;2023-02-01T05:29:15;0.80;;;0.60;;
40322;SDS011;26030;51.164;17.100;2023-02-01T05:34:19;0.80;;;0.80;;
40322;SDS011;26030;51.164;17.100;2023-02-01T05:39:23;2.00;;;0.90;;
40322;SDS011;26030;51.164;17.100;2023-02-01T05:44:27;1.60;;;0.80;;
40322;SDS011;26030;51.164;17.100;2023-02-01T05:49:31;2.00;;;0.90;;
40322;SDS011;26030;51.164;17.100;2023-02-01T05:54:36;2.00;;;0.90;;
40322;SDS011;26030;51.164;17.100;2023-02-01T05:59:40;1.00;;;0.80;;
40322;SDS011;26030;51.164;17.100;2023-02-01T06:04:45;1.40;;;0.80;;
40322;SDS011;26030;51.164;17.100;2023-02-01T06:09:49;1.40;;;1.00;;
40322;SDS011;26030;51.164;17.100;2023-02-01T06:14:53;1.20;;;0.90;;
40322;SDS011;26030;51.164;17.100;2023-02-01T06:19:57;1.40;;;0.90;;
40322;SDS011;26030;51.164;17.100;2023-02-01T06:25:03;1.70;;;1.10;;
40322;SDS011;26030;51.164;17.100;2023-02-01T06:30:09;1.40;;;0.70;;
40322;SDS011;26030;51.164;17.100;2023-02-01T06:35:13;1.30;;;0.80;;
40322;SDS011;26030;51.164;17.100;2023-02-01T06:40:20;3.00;;;0.80;;
40322;SDS011;26030;51.164;17.100;2023-02-01T06:45:25;1.40;;;1.00;;
40322;SDS011;26030;51.164;17.100;2023-02-01T06:50:30;2.40;;;0.90;;
40322;SDS011;26030;51.164;17.100;2023-02-01T06:55:34;1.70;;;0.80;;
40322;SDS011;26030;51.164;17.100;2023-02-01T07:00:38;1.50;;;0.90;;
40322;SDS011;26030;51.164;17.100;2023-02-01T07:05:42;3.20;;;1.00;;
40322;SDS011;26030;51.164;17.100;2023-02-01T07:10:46;8.10;;;1.40;;
40322;SDS011;26030;51.164;17.100;2023-02-01T07:15:50;2.20;;;1.10;;
40322;SDS011;26030;51.164;17.100;2023-02-01T07:20:56;4.00;;;1.10;;
40322;SDS011;26030;51.164;17.100;2023-02-01T07:26:03;3.10;;;1.00;;
40322;SDS011;26030;51.164;17.100;2023-02-01T07:31:15;4.80;;;1.10;;
40322;SDS011;26030;51.164;17.100;2023-02-01T07:36:22;1.90;;;1.00;;
40322;SDS011;26030;51.164;17.100;2023-02-01T07:41:26;8.10;;;0.90;;
40322;SDS011;26030;51.164;17.100;2023-02-01T07:46:31;11.60;;;1.60;;
40322;SDS011;26030;51.164;17.100;2023-02-01T07:51:35;2.60;;;1.20;;
40322;SDS011;26030;51.164;17.100;2023-02-01T07:56:39;7.30;;;1.30;;
40322;SDS011;26030;51.164;17.100;2023-02-01T08:01:43;5.10;;;1.70;;
40322;SDS011;26030;51.164;17.100;2023-02-01T08:06:48;7.20;;;1.30;;
40322;SDS011;26030;51.164;17.100;2023-02-01T08:11:52;2.70;;;1.40;;
40322;SDS011;26030;51.164;17.100;2023-02-01T08:16:56;6.80;;;1.60;;
40322;SDS011;26030;51.164;17.100;2023-02-01T08:22:00;4.80;;;1.80;;
40322;SDS011;26030;51.164;17.100;2023-02-01T08:27:09;7.90;;;1.80;;
40322;SDS011;26030;51.164;17.100;2023-02-01T08:32:13;6.80;;;1.90;;
40322;SDS011;26030;51.164;17.100;2023-02-01T08:37:18;4.60;;;1.60;;
40322;SDS011;26030;51.164;17.100;2023-02-01T08:42:22;6.80;;;2.00;;
40322;SDS011;26030;51.164;17.100;2023-02-01T08:47:46;5.40;;;2.10;;
40322;SDS011;26030;51.164;17.100;2023-02-01T08:52:53;3.60;;;1.50;;
40322;SDS011;26030;51.164;17.100;2023-02-01T08:57:57;4.80;;;1.90;;
40322;SDS011;26030;51.164;17.100;2023-02-01T09:03:02;5.90;;;1.90;;
40322;SDS011;26030;51.164;17.100;2023-02-01T09:08:07;4.30;;;2.10;;
40322;SDS011;26030;51.164;17.100;2023-02-01T09:13:11;3.80;;;2.20;;
40322;SDS011;26030;51.164;17.100;2023-02-01T09:18:15;4.20;;;1.60;;
40322;SDS011;26030;51.164;17.100;2023-02-01T09:23:20;4.30;;;2.10;;
40322;SDS011;26030;51.164;17.100;2023-02-01T09:28:24;5.30;;;2.20;;
40322;SDS011;26030;51.164;17.100;2023-02-01T09:33:28;3.20;;;1.90;;
40322;SDS011;26030;51.164;17.100;2023-02-01T09:38:32;3.10;;;1.60;;
40322;SDS011;26030;51.164;17.100;2023-02-01T09:44:03;4.10;;;1.90;;
40322;SDS011;26030;51.164;17.100;2023-02-01T09:49:19;2.60;;;1.70;;
40322;SDS011;26030;51.164;17.100;2023-02-01T09:54:40;3.80;;;2.00;;
40322;SDS011;26030;51.164;17.100;2023-02-01T10:00:00;3.40;;;1.90;;
40322;SDS011;26030;51.164;17.100;2023-02-01T10:05:18;3.70;;;1.80;;
40322;SDS011;26030;51.164;17.100;2023-02-01T10:10:39;3.10;;;1.90;;
40322;SDS011;26030;51.164;17.100;2023-02-01T10:26:25;3.30;;;2.40;;
40322;SDS011;26030;51.164;17.100;2023-02-01T10:31:35;2.60;;;1.70;;
40322;SDS011;26030;51.164;17.100;2023-02-01T10:36:44;2.50;;;1.80;;
40322;SDS011;26030;51.164;17.100;2023-02-01T10:41:49;3.10;;;1.90;;
40322;SDS011;26030;51.164;17.100;2023-02-01T10:46:53;3.10;;;2.10;;
40322;SDS011;26030;51.164;17.100;2023-02-01T10:52:02;1.80;;;1.50;;
40322;SDS011;26030;51.164;17.100;2023-02-01T10:57:19;2.20;;;2.00;;
40322;SDS011;26030;51.164;17.100;2023-02-01T11:02:33;2.40;;;2.00;;
40322;SDS011;26030;51.164;17.100;2023-02-01T11:07:40;2.30;;;1.90;;
40322;SDS011;26030;51.164;17.100;2023-02-01T11:12:53;4.40;;;1.70;;
40322;SDS011;26030;51.164;17.100;2023-02-01T11:18:14;2.90;;;2.20;;
40322;SDS011;26030;51.164;17.100;2023-02-01T11:23:22;4.00;;;2.20;;
40322;SDS011;26030;51.164;17.100;2023-02-01T11:28:30;6.10;;;2.20;;
40322;SDS011;26030;51.164;17.100;2023-02-01T11:33:45;4.70;;;2.30;;
40322;SDS011;26030;51.164;17.100;2023-02-01T11:39:18;3.30;;;2.00;;
40322;SDS011;26030;51.164;17.100;2023-02-01T11:44:36;5.60;;;2.00;;
40322;SDS011;26030;51.164;17.100;2023-02-01T11:49:40;2.70;;;2.10;;
40322;SDS011;26030;51.164;17.100;2023-02-01T12:11:26;2.40;;;2.20;;
40322;SDS011;26030;51.164;17.100;2023-02-01T12:22:14;2.50;;;2.20;;
40322;SDS011;26030;51.164;17.100;2023-02-01T12:33:22;2.60;;;1.80;;
40322;SDS011;26030;51.164;17.100;2023-02-01T12:49:29;3.60;;;2.10;;
40322;SDS011;26030;51.164;17.100;2023-02-01T12:55:20;2.70;;;2.20;;
40322;SDS011;26030;51.164;17.100;2023-02-01T13:00:38;3.10;;;2.50;;
40322;SDS011;26030;51.164;17.100;2023-02-01T13:11:11;3.80;;;2.00;;
40322;SDS011;26030;51.164;17.100;2023-02-01T13:21:38;2.30;;;2.10;;
40322;SDS011;26030;51.164;17.100;2023-02-01T13:26:45;3.50;;;2.00;;
40322;SDS011;26030;51.164;17.100;2023-02-01T13:42:55;2.40;;;2.00;;
40322;SDS011;26030;51.164;17.100;2023-02-01T13:48:04;2.40;;;1.80;;
40322;SDS011;26030;51.164;17.100;2023-02-01T13:58:35;2.30;;;2.00;;
40322;SDS011;26030;51.164;17.100;2023-02-01T14:03:45;2.00;;;1.80;;
40322;SDS011;26030;51.164;17.100;2023-02-01T14:19:38;2.50;;;2.00;;
40322;SDS011;26030;51.164;17.100;2023-02-01T14:24:50;2.10;;;1.90;;
40322;SDS011;26030;51.164;17.100;2023-02-01T14:29:59;2.30;;;1.80;;
40322;SDS011;26030;51.164;17.100;2023-02-01T14:35:28;2.00;;;1.90;;
40322;SDS011;26030;51.164;17.100;2023-02-01T14:40:32;2.50;;;2.00;;
40322;SDS011;26030;51.164;17.100;2023-02-01T14:50:47;1.70;;;1.60;;
40322;SDS011;26030;51.164;17.100;2023-02-01T14:56:00;5.10;;;2.20;;
40322;SDS011;26030;51.164;17.100;2023-02-01T15:06:42;3.60;;;2.30;;
40322;SDS011;26030;51.164;17.100;2023-02-01T15:12:04;3.60;;;2.10;;
40322;SDS011;26030;51.164;17.100;2023-02-01T15:17:38;2.20;;;2.00;;
40322;SDS011;26030;51.164;17.100;2023-02-01T15:23:01;2.50;;;2.30;;
40322;SDS011;26030;51.164;17.100;2023-02-01T15:28:13;2.40;;;2.20;;
40322;SDS011;26030;51.164;17.100;2023-02-01T15:33:18;2.40;;;2.20;;
40322;SDS011;26030;51.164;17.100;2023-02-01T15:49:03;2.30;;;2.10;;
40322;SDS011;26030;51.164;17.100;2023-02-01T15:54:16;3.90;;;2.10;;
40322;SDS011;26030;51.164;17.100;2023-02-01T15:59:29;2.40;;;2.20;;
40322;SDS011;26030;51.164;17.100;2023-02-01T16:04:46;2.50;;;2.20;;
40322;SDS011;26030;51.164;17.100;2023-02-01T16:09:55;2.80;;;2.40;;
40322;SDS011;26030;51.164;17.100;2023-02-01T16:15:02;2.30;;;2.10;;
40322;SDS011;26030;51.164;17.100;2023-02-01T16:20:10;3.40;;;2.30;;
40322;SDS011;26030;51.164;17.100;2023-02-01T16:25:15;2.70;;;2.50;;
40322;SDS011;26030;51.164;17.100;2023-02-01T16:30:20;3.30;;;2.50;;
40322;SDS011;26030;51.164;17.100;2023-02-01T16:35:29;2.60;;;2.20;;
40322;SDS011;26030;51.164;17.100;2023-02-01T16:40:40;2.50;;;2.30;;
40322;SDS011;26030;51.164;17.100;2023-02-01T16:45:47;2.60;;;2.40;;
40322;SDS011;26030;51.164;17.100;2023-02-01T16:50:59;4.10;;;2.90;;
40322;SDS011;26030;51.164;17.100;2023-02-01T16:56:32;4.30;;;3.10;;
40322;SDS011;26030;51.164;17.100;2023-02-01T17:01:38;3.10;;;2.40;;
40322;SDS011;26030;51.164;17.100;2023-02-01T17:06:47;3.80;;;2.20;;
40322;SDS011;26030;51.164;17.100;2023-02-01T17:11:57;3.50;;;2.60;;
40322;SDS011;26030;51.164;17.100;2023-02-01T17:17:03;4.00;;;2.60;;
40322;SDS011;26030;51.164;17.100;2023-02-01T17:22:09;6.70;;;2.80;;
40322;SDS011;26030;51.164;17.100;2023-02-01T17:27:16;8.50;;;3.00;;
40322;SDS011;26030;51.164;17.100;2023-02-01T17:32:24;3.90;;;2.30;;
40322;SDS011;26030;51.164;17.100;2023-02-01T17:37:34;3.90;;;2.60;;
40322;SDS011;26030;51.164;17.100;2023-02-01T17:42:43;9.30;;;2.90;;
40322;SDS011;26030;51.164;17.100;2023-02-01T17:47:49;2.80;;;2.50;;
40322;SDS011;26030;51.164;17.100;2023-02-01T17:52:58;11.50;;;2.80;;
40322;SDS011;26030;51.164;17.100;2023-02-01T17:58:12;6.00;;;2.50;;
40322;SDS011;26030;51.164;17.100;2023-02-01T18:03:25;10.10;;;2.90;;
40322;SDS011;26030;51.164;17.100;2023-02-01T18:08:35;7.50;;;3.10;;
40322;SDS011;26030;51.164;17.100;2023-02-01T18:13:46;13.30;;;3.20;;
40322;SDS011;26030;51.164;17.100;2023-02-01T18:18:55;9.20;;;3.20;;
40322;SDS011;26030;51.164;17.100;2023-02-01T18:24:15;6.70;;;3.90;;
40322;SDS011;26030;51.164;17.100;2023-02-01T18:29:22;6.70;;;2.80;;
40322;SDS011;26030;51.164;17.100;2023-02-01T18:34:28;6.50;;;3.10;;
40322;SDS011;26030;51.164;17.100;2023-02-01T18:39:36;6.50;;;3.30;;
40322;SDS011;26030;51.164;17.100;2023-02-01T18:44:44;6.20;;;3.40;;
40322;SDS011;26030;51.164;17.100;2023-02-01T18:49:53;8.40;;;4.10;;
40322;SDS011;26030;51.164;17.100;2023-02-01T18:55:00;6.40;;;3.40;;
40322;SDS011;26030;51.164;17.100;2023-02-01T19:00:11;15.60;;;3.90;;
40322;SDS011;26030;51.164;17.100;2023-02-01T19:05:22;8.60;;;4.00;;
40322;SDS011;26030;51.164;17.100;2023-02-01T19:10:31;9.20;;;4.80;;
40322;SDS011;26030;51.164;17.100;2023-02-01T19:15:41;8.90;;;3.50;;
40322;SDS011;26030;51.164;17.100;2023-02-01T19:20:49;10.60;;;3.90;;
40322;SDS011;26030;51.164;17.100;2023-02-01T19:25:58;6.40;;;3.50;;
40322;SDS011;26030;51.164;17.100;2023-02-01T19:31:07;8.10;;;3.20;;
40322;SDS011;26030;51.164;17.100;2023-02-01T19:36:16;10.10;;;3.90;;
40322;SDS011;26030;51.164;17.100;2023-02-01T19:41:31;12.40;;;3.70;;
40322;SDS011;26030;51.164;17.100;2023-02-01T19:46:41;9.50;;;4.20;;
40322;SDS011;26030;51.164;17.100;2023-02-01T19:51:56;15.90;;;4.70;;
40322;SDS011;26030;51.164;17.100;2023-02-01T19:57:07;9.90;;;4.20;;
40322;SDS011;26030;51.164;17.100;2023-02-01T20:02:20;13.00;;;4.80;;
40322;SDS011;26030;51.164;17.100;2023-02-01T20:07:39;9.80;;;4.60;;
40322;SDS011;26030;51.164;17.100;2023-02-01T20:12:59;10.00;;;4.90;;
40322;SDS011;26030;51.164;17.100;2023-02-01T20:18:13;7.70;;;4.30;;
40322;SDS011;26030;51.164;17.100;2023-02-01T20:23:18;7.20;;;4.50;;
40322;SDS011;26030;51.164;17.100;2023-02-01T20:28:28;7.80;;;4.10;;
40322;SDS011;26030;51.164;17.100;2023-02-01T20:33:42;12.40;;;3.50;;
40322;SDS011;26030;51.164;17.100;2023-02-01T20:38:53;7.60;;;3.60;;
40322;SDS011;26030;51.164;17.100;2023-02-01T20:44:02;9.20;;;4.20;;
40322;SDS011;26030;51.164;17.100;2023-02-01T20:49:16;8.70;;;4.00;;
40322;SDS011;26030;51.164;17.100;2023-02-01T20:54:23;4.40;;;3.40;;
40322;SDS011;26030;51.164;17.100;2023-02-01T20:59:30;8.50;;;3.50;;
40322;SDS011;26030;51.164;17.100;2023-02-01T21:04:39;8.00;;;3.50;;
40322;SDS011;26030;51.164;17.100;2023-02-01T21:09:51;5.30;;;3.20;;
40322;SDS011;26030;51.164;17.100;2023-02-01T21:15:05;9.40;;;3.70;;
40322;SDS011;26030;51.164;17.100;2023-02-01T21:20:11;11.90;;;3.50;;
40322;SDS011;26030;51.164;17.100;2023-02-01T21:25:17;4.90;;;2.70;;
40322;SDS011;26030;51.164;17.100;2023-02-01T21:30:23;5.80;;;3.30;;
40322;SDS011;26030;51.164;17.100;2023-02-01T21:35:28;5.10;;;3.00;;
40322;SDS011;26030;51.164;17.100;2023-02-01T21:40:32;4.20;;;2.60;;
40322;SDS011;26030;51.164;17.100;2023-02-01T21:45:37;8.20;;;2.90;;
40322;SDS011;26030;51.164;17.100;2023-02-01T21:50:49;6.30;;;2.80;;
40322;SDS011;26030;51.164;17.100;2023-02-01T21:55:56;5.30;;;2.60;;
40322;SDS011;26030;51.164;17.100;2023-02-01T22:01:00;8.40;;;2.90;;
40322;SDS011;26030;51.164;17.100;2023-02-01T22:06:04;5.40;;;2.60;;
40322;SDS011;26030;51.164;17.100;2023-02-01T22:11:09;6.40;;;3.20;;
40322;SDS011;26030;51.164;17.100;2023-02-01T22:16:16;6.70;;;2.80;;
40322;SDS011;26030;51.164;17.100;2023-02-01T22:21:29;12.10;;;2.60;;
40322;SDS011;26030;51.164;17.100;2023-02-01T22:26:34;5.80;;;2.30;;
40322;SDS011;26030;51.164;17.100;2023-02-01T22:31:47;3.50;;;2.20;;
40322;SDS011;26030;51.164;17.100;2023-02-01T22:36:53;5.30;;;2.70;;
40322;SDS011;26030;51.164;17.100;2023-02-01T22:42:06;5.60;;;2.30;;
40322;SDS011;26030;51.164;17.100;2023-02-01T22:47:20;4.60;;;1.90;;
40322;SDS011;26030;51.164;17.100;2023-02-01T22:52:32;4.50;;;2.20;;
40322;SDS011;26030;51.164;17.100;2023-02-01T22:57:43;4.50;;;2.10;;
40322;SDS011;26030;51.164;17.100;2023-02-01T23:02:47;4.20;;;2.00;;
40322;SDS011;26030;51.164;17.100;2023-02-01T23:07:53;5.30;;;2.10;;
40322;SDS011;26030;51.164;17.100;2023-02-01T23:12:57;2.60;;;1.50;;
40322;SDS011;26030;51.164;17.100;2023-02-01T23:18:01;4.40;;;2.20;;
40322;SDS011;26030;51.164;17.100;2023-02-01T23:23:05;3.40;;;2.00;;
40322;SDS011;26030;51.164;17.100;2023-02-01T23:28:10;3.80;;;1.80;;
40322;SDS011;26030;51.164;17.100;2023-02-01T23:33:14;4.00;;;2.10;;
40322;SDS011;26030;51.164;17.100;2023-02-01T23:38:18;6.30;;;2.10;;
40322;SDS011;26030;51.164;17.100;2023-02-01T23:43:22;2.80;;;1.90;;
40322;SDS011;26030;51.164;17.100;2023-02-01T23:48:47;4.40;;;1.90;;
40322;SDS011;26030;51.164;17.100;2023-02-01T23:53:52;3.10;;;2.10;;
40322;SDS011;26030;51.164;17.100;2023-02-01T23:58:56;3.30;;;1.90;;
